Terminal Aerodrome Forecast
Issued by NWS

Home | Current Version | Previous Version | Text Only | Print | Product List | Glossary On
Versions: 1 2 3 4 5 6 7 8 9 10 11 12 13 14 15 16
975
FTUS43 KEAX 240435 AAC
TAFSTJ
TAF AMD
KSTJ 240435Z 2405/2424 05006KT 2SM BR VCSH OVC004
     FM240600 31013KT P6SM BKN010
     FM241900 31019KT P6SM VCSH OVC020=

USA.gov is the U.S. government's official web portal to all federal, state and local government web resources and services.